Time;durP1;ratioP1;P1;durP2;ratioP2;P2;SDS_P1;SDS_P2;PMS_P1;PMS_P2;Temp;Humidity;BMP_temperature;BMP_pressure;BME280_temperature;BME280_humidity;BME280_pressure;Samples;Min_cycle;Max_cycle;Signal;HPM_P1;HPM_P2
2022/08/15 00:01:23;;;;;;;7.17;5.70;;;31.00;51.90;;;;;;4952765;29;20459;-73
2022/08/15 00:03:59;;;;;;;6.10;5.60;;;31.00;51.90;;;;;;4953081;28;20984;-73
2022/08/15 00:06:40;;;;;;;5.97;5.50;;;31.00;51.90;;;;;;4936372;29;20499;-73
2022/08/15 00:09:17;;;;;;;6.40;5.90;;;30.90;51.90;;;;;;4950664;28;20928;-73
2022/08/15 00:11:46;;;;;;;5.87;5.47;;;30.90;52.00;;;;;;4940824;29;20818;-73
2022/08/15 00:14:22;;;;;;;6.17;5.67;;;30.90;52.00;;;;;;4917730;29;20484;-73
2022/08/15 00:16:49;;;;;;;6.23;5.67;;;30.90;52.00;;;;;;4945635;29;20451;-73
2022/08/15 00:19:22;;;;;;;5.80;5.30;;;30.90;52.00;;;;;;4936290;29;20526;-73
2022/08/15 00:21:51;;;;;;;6.57;6.07;;;30.90;52.00;;;;;;4952835;28;20467;-73
2022/08/15 00:24:23;;;;;;;6.20;5.67;;;30.90;52.10;;;;;;4952252;29;20446;-73
2022/08/15 00:26:50;;;;;;;6.30;5.80;;;30.80;52.00;;;;;;4951533;29;20454;-73
2022/08/15 00:29:22;;;;;;;5.97;5.57;;;30.80;52.10;;;;;;4937009;29;20426;-73
2022/08/15 00:31:53;;;;;;;6.40;5.17;;;30.80;52.10;;;;;;4935520;28;20474;-73
2022/08/15 00:34:20;;;;;;;5.73;5.23;;;30.80;52.60;;;;;;4936742;29;20419;-73
2022/08/15 00:36:50;;;;;;;6.03;5.60;;;30.80;52.10;;;;;;4935803;29;20482;-73
2022/08/15 00:39:22;;;;;;;6.00;5.57;;;30.70;52.10;;;;;;4934048;29;20464;-73
2022/08/15 00:41:50;;;;;;;6.40;5.80;;;30.70;52.10;;;;;;4952450;29;20466;-73
2022/08/15 00:44:22;;;;;;;6.43;5.93;;;30.70;52.10;;;;;;4932858;29;20451;-73
2022/08/15 00:46:55;;;;;;;5.80;5.30;;;30.70;52.20;;;;;;4917519;29;20459;-73
2022/08/15 00:49:26;;;;;;;6.40;5.90;;;30.70;52.20;;;;;;4950230;29;20465;-73
2022/08/15 00:52:03;;;;;;;6.10;5.60;;;30.70;52.20;;;;;;4936606;29;20454;-73
2022/08/15 00:54:44;;;;;;;6.33;5.83;;;30.70;52.20;;;;;;4947956;29;20825;-73
2022/08/15 00:57:33;;;;;;;6.47;5.97;;;30.60;52.20;;;;;;4933123;29;20423;-73
2022/08/15 01:00:09;;;;;;;6.23;5.83;;;30.60;52.30;;;;;;4936085;29;20431;-73
2022/08/15 01:02:36;;;;;;;6.60;6.10;;;30.60;52.30;;;;;;4951294;28;20536;-73
2022/08/15 01:05:08;;;;;;;6.13;5.63;;;30.50;52.20;;;;;;4951767;29;20407;-73
2022/08/15 01:07:35;;;;;;;5.90;5.40;;;30.60;52.40;;;;;;4936573;29;20442;-73
2022/08/15 01:10:02;;;;;;;6.20;5.70;;;30.50;52.30;;;;;;4949105;29;20442;-73
2022/08/15 01:12:32;;;;;;;6.33;5.83;;;30.50;52.30;;;;;;4952359;29;20435;-73
2022/08/15 01:15:04;;;;;;;6.13;5.63;;;30.50;52.30;;;;;;4935928;29;20481;-73
2022/08/15 01:17:31;;;;;;;5.70;5.30;;;30.50;52.30;;;;;;4936356;29;20442;-73
2022/08/15 01:20:11;;;;;;;5.90;5.40;;;30.50;52.40;;;;;;4937404;29;20795;-73
2022/08/15 01:22:43;;;;;;;5.90;5.40;;;30.50;52.40;;;;;;4939303;29;20498;-73
2022/08/15 01:25:35;;;;;;;6.43;5.70;;;30.40;52.30;;;;;;4939660;29;20449;-73
2022/08/15 01:28:05;;;;;;;6.93;6.33;;;30.40;52.30;;;;;;4938688;29;20470;-73
2022/08/15 01:30:55;;;;;;;6.03;5.60;;;30.40;52.40;;;;;;4955620;29;20893;-73
2022/08/15 01:33:54;;;;;;;6.03;5.53;;;30.40;52.40;;;;;;4935074;29;20550;-73
2022/08/15 01:36:23;;;;;;;5.77;5.37;;;30.40;52.40;;;;;;4936411;29;20479;-73
2022/08/15 01:39:11;;;;;;;6.20;5.60;;;30.40;52.40;;;;;;4934980;29;20478;-73
2022/08/15 01:41:56;;;;;;;5.87;5.40;;;30.30;52.30;;;;;;4955247;29;21141;-73
2022/08/15 01:44:40;;;;;;;6.50;6.00;;;30.30;52.30;;;;;;4936244;29;20443;-73
2022/08/15 01:47:15;;;;;;;6.47;5.97;;;30.30;52.30;;;;;;4953111;29;20396;-73
2022/08/15 01:50:26;;;;;;;7.33;6.50;;;30.30;52.30;;;;;;4938142;29;20435;-73
2022/08/15 01:53:03;;;;;;;6.13;5.63;;;30.20;52.20;;;;;;4937901;29;20470;-73
2022/08/15 01:55:47;;;;;;;6.53;5.93;;;30.20;52.20;;;;;;4954258;29;20418;-73
2022/08/15 01:58:15;;;;;;;5.50;5.10;;;30.20;52.20;;;;;;4938465;29;20474;-73
2022/08/15 02:00:53;;;;;;;5.70;5.30;;;30.20;52.20;;;;;;4951315;29;20436;-73
2022/08/15 02:03:33;;;;;;;6.77;6.03;;;30.20;52.20;;;;;;4951252;28;20455;-73
2022/08/15 02:06:03;;;;;;;5.80;5.33;;;30.20;52.20;;;;;;4920309;29;20412;-73
2022/08/15 02:08:32;;;;;;;5.30;4.90;;;30.20;52.10;;;;;;4941402;29;21273;-73
2022/08/15 02:10:59;;;;;;;5.97;5.47;;;30.10;52.00;;;;;;4954760;29;20489;-73
2022/08/15 02:13:25;;;;;;;5.80;5.30;;;30.10;52.10;;;;;;4938451;29;20554;-73
2022/08/15 02:15:52;;;;;;;6.07;5.47;;;30.10;52.00;;;;;;4953384;29;20430;-73
2022/08/15 02:18:20;;;;;;;5.87;5.47;;;30.10;52.00;;;;;;4952059;29;20968;-73
2022/08/15 02:20:49;;;;;;;5.87;5.37;;;30.10;52.00;;;;;;4952976;29;20458;-73
2022/08/15 02:23:18;;;;;;;5.00;4.60;;;30.10;51.90;;;;;;4970153;28;20463;-73
2022/08/15 02:25:44;;;;;;;5.93;5.30;;;30.00;51.80;;;;;;4938062;29;20427;-73
2022/08/15 02:28:10;;;;;;;6.20;5.40;;;30.00;51.80;;;;;;4951283;28;20448;-73
2022/08/15 02:30:36;;;;;;;5.10;4.70;;;30.00;51.80;;;;;;4935248;29;20898;-73
2022/08/15 02:33:07;;;;;;;4.97;4.57;;;30.00;51.80;;;;;;4953047;29;20517;-73
2022/08/15 02:35:36;;;;;;;5.50;5.10;;;30.00;51.70;;;;;;4936767;29;20503;-73
2022/08/15 02:38:06;;;;;;;5.10;4.70;;;29.90;51.60;;;;;;4959342;28;20418;-73
2022/08/15 02:40:34;;;;;;;4.60;4.20;;;29.90;51.60;;;;;;4954638;28;20427;-73
2022/08/15 02:43:05;;;;;;;4.70;4.30;;;29.90;51.60;;;;;;4954194;29;20439;-73
2022/08/15 02:45:37;;;;;;;4.40;4.00;;;29.90;51.60;;;;;;4937356;29;20438;-73
2022/08/15 02:48:08;;;;;;;5.53;4.27;;;29.90;51.50;;;;;;4940945;29;20503;-73
2022/08/15 02:50:40;;;;;;;4.70;4.27;;;29.90;52.10;;;;;;4919735;29;20774;-73
2022/08/15 02:53:14;;;;;;;5.00;4.60;;;29.90;51.60;;;;;;4938220;29;20976;-73
2022/08/15 02:55:43;;;;;;;4.60;4.10;;;29.90;51.60;;;;;;4953678;28;20438;-73
2022/08/15 02:58:10;;;;;;;4.57;4.20;;;29.80;51.50;;;;;;4955011;28;20490;-73
2022/08/15 03:00:41;;;;;;;4.37;3.90;;;29.80;51.40;;;;;;4937223;29;20554;-73
2022/08/15 03:03:11;;;;;;;4.83;4.50;;;29.80;51.50;;;;;;4934241;29;20582;-74
2022/08/15 03:05:43;;;;;;;5.03;4.10;;;29.80;51.40;;;;;;4937975;29;20450;-73
2022/08/15 03:08:13;;;;;;;4.40;4.10;;;29.70;51.40;;;;;;4937963;29;20489;-73
2022/08/15 03:10:41;;;;;;;4.67;4.27;;;29.70;51.40;;;;;;4934946;29;20502;-73
2022/08/15 03:13:16;;;;;;;4.30;3.93;;;29.70;51.40;;;;;;4937666;29;20797;-73
2022/08/15 03:15:52;;;;;;;4.47;4.10;;;29.70;51.40;;;;;;4953024;29;20458;-73
2022/08/15 03:18:24;;;;;;;4.57;4.17;;;29.70;51.40;;;;;;4937877;29;20455;-73
2022/08/15 03:20:51;;;;;;;4.47;4.10;;;29.70;51.40;;;;;;4933267;29;20558;-73
2022/08/15 03:23:21;;;;;;;8.03;4.50;;;29.60;51.40;;;;;;4934433;29;20428;-73
2022/08/15 03:25:51;;;;;;;5.20;4.13;;;29.60;51.40;;;;;;4953216;29;20471;-73
2022/08/15 03:28:23;;;;;;;4.47;4.07;;;29.60;51.40;;;;;;4936561;29;20439;-73
2022/08/15 03:30:50;;;;;;;4.47;4.17;;;29.60;51.40;;;;;;4937595;29;20450;-73
2022/08/15 03:33:18;;;;;;;4.60;4.00;;;29.60;51.40;;;;;;4953102;28;20920;-73
2022/08/15 03:35:51;;;;;;;4.40;4.00;;;29.60;51.50;;;;;;4933257;29;20444;-73
2022/08/15 03:38:20;;;;;;;4.40;4.00;;;29.60;51.50;;;;;;4908605;29;20590;-73
2022/08/15 03:40:48;;;;;;;4.63;4.23;;;29.50;51.40;;;;;;4952928;29;20561;-73
2022/08/15 03:43:20;;;;;;;4.50;4.13;;;29.50;51.40;;;;;;4951366;28;20449;-73
2022/08/15 03:45:52;;;;;;;3.87;3.43;;;29.50;52.00;;;;;;4937408;29;20431;-74
2022/08/15 03:48:25;;;;;;;6.73;3.80;;;29.50;51.40;;;;;;4946318;29;21026;-73
2022/08/15 03:50:54;;;;;;;5.77;4.03;;;29.50;51.50;;;;;;4953052;29;20458;-73
2022/08/15 03:53:20;;;;;;;4.17;3.87;;;29.50;51.50;;;;;;4932557;29;21216;-73
2022/08/15 03:55:49;;;;;;;4.50;4.10;;;29.40;51.50;;;;;;4951943;29;20462;-73
2022/08/15 03:58:16;;;;;;;4.30;3.90;;;29.50;51.50;;;;;;4937147;29;20928;-73
2022/08/15 04:00:50;;;;;;;4.93;3.93;;;29.40;51.50;;;;;;4936453;29;20843;-73
2022/08/15 04:03:21;;;;;;;5.00;4.03;;;29.40;51.50;;;;;;4952104;29;20461;-73
2022/08/15 04:05:50;;;;;;;4.13;3.83;;;29.40;51.50;;;;;;4935617;29;20456;-73
2022/08/15 04:08:20;;;;;;;3.97;3.67;;;29.40;51.50;;;;;;4933705;29;20420;-73
2022/08/15 04:10:50;;;;;;;4.23;3.93;;;29.40;51.50;;;;;;4933080;29;20444;-73
2022/08/15 04:13:23;;;;;;;6.60;4.03;;;29.40;51.60;;;;;;4917813;29;20447;-72
2022/08/15 04:15:53;;;;;;;4.33;3.83;;;29.30;51.60;;;;;;4932379;29;20812;-73
2022/08/15 04:18:20;;;;;;;5.00;4.50;;;29.30;51.60;;;;;;4948582;29;20439;-73
2022/08/15 04:20:48;;;;;;;4.50;3.70;;;29.30;51.60;;;;;;4952503;29;20403;-72
2022/08/15 04:23:14;;;;;;;3.90;3.60;;;29.30;51.70;;;;;;4935859;29;20462;-73
2022/08/15 04:26:07;;;;;;;5.70;3.60;;;29.30;51.60;;;;;;4935380;29;20575;-73
2022/08/15 04:28:34;;;;;;;3.97;3.67;;;29.30;51.60;;;;;;4935188;29;20526;-73
2022/08/15 04:31:04;;;;;;;4.27;3.87;;;29.30;51.70;;;;;;4950890;28;20451;-73
2022/08/15 04:33:32;;;;;;;5.60;4.10;;;29.20;51.60;;;;;;4933506;29;20468;-73
2022/08/15 04:36:09;;;;;;;4.40;3.93;;;29.20;51.70;;;;;;4946656;29;20445;-72
2022/08/15 04:38:41;;;;;;;4.13;3.73;;;29.20;51.70;;;;;;4951733;29;20952;-73
2022/08/15 04:41:30;;;;;;;4.53;4.13;;;29.20;51.70;;;;;;4914563;29;21134;-73
2022/08/15 04:44:00;;;;;;;3.97;3.67;;;29.20;51.80;;;;;;4935779;29;20451;-72
2022/08/15 04:46:27;;;;;;;7.23;3.50;;;29.20;51.80;;;;;;4952135;29;20446;-72
2022/08/15 04:48:58;;;;;;;4.60;4.07;;;29.10;51.70;;;;;;4948064;29;20443;-72
2022/08/15 04:51:24;;;;;;;4.40;4.00;;;29.10;51.70;;;;;;4964932;28;20416;-73
2022/08/15 04:53:53;;;;;;;5.20;4.27;;;29.10;51.70;;;;;;4936563;28;20484;-72
2022/08/15 04:56:22;;;;;;;4.10;3.70;;;29.10;51.70;;;;;;4940200;29;20422;-73
2022/08/15 04:58:49;;;;;;;3.90;3.60;;;29.10;51.80;;;;;;4935980;29;20824;-73
2022/08/15 05:01:19;;;;;;;4.10;3.70;;;29.10;51.80;;;;;;4920922;29;20555;-73
2022/08/15 05:03:50;;;;;;;4.77;4.37;;;29.10;51.80;;;;;;4935057;29;20526;-73
2022/08/15 05:06:18;;;;;;;3.90;3.60;;;29.10;51.80;;;;;;4951726;29;20449;-73
2022/08/15 05:08:45;;;;;;;4.13;3.80;;;29.00;51.80;;;;;;4940163;29;20776;-73
2022/08/15 05:11:18;;;;;;;3.73;3.23;;;29.00;51.80;;;;;;4955314;29;20956;-73
2022/08/15 05:13:49;;;;;;;3.67;3.40;;;29.00;51.80;;;;;;4939919;29;20844;-73
2022/08/15 05:16:32;;;;;;;4.00;3.70;;;29.00;51.80;;;;;;4955372;28;20822;-73
2022/08/15 05:19:02;;;;;;;3.80;3.40;;;29.00;51.80;;;;;;4937300;29;20566;-73
2022/08/15 05:21:29;;;;;;;5.27;3.83;;;29.00;51.80;;;;;;4905927;29;20474;-74
2022/08/15 05:23:55;;;;;;;3.63;3.33;;;29.00;51.90;;;;;;4938621;29;20916;-74
2022/08/15 05:26:30;;;;;;;5.10;3.90;;;28.90;51.80;;;;;;4956005;29;20449;-71
2022/08/15 05:28:56;;;;;;;3.77;3.13;;;28.90;51.80;;;;;;4954732;29;20816;-73
2022/08/15 05:31:22;;;;;;;3.97;3.57;;;28.90;51.80;;;;;;4939567;29;20413;-73
2022/08/15 05:33:54;;;;;;;5.40;4.17;;;28.90;51.80;;;;;;4954690;29;20486;-73
2022/08/15 05:36:22;;;;;;;3.80;3.50;;;28.90;51.90;;;;;;4951791;29;20459;-73
2022/08/15 05:38:58;;;;;;;4.17;3.77;;;28.90;51.90;;;;;;4949791;29;20442;-73
2022/08/15 05:41:33;;;;;;;5.33;3.80;;;28.90;51.90;;;;;;4955344;29;20493;-73
2022/08/15 05:44:02;;;;;;;3.83;3.53;;;28.90;51.90;;;;;;4954708;29;20858;-73
2022/08/15 05:46:46;;;;;;;4.00;3.00;;;28.90;52.00;;;;;;4955310;29;20414;-73
2022/08/15 05:49:35;;;;;;;3.70;3.30;;;28.90;52.00;;;;;;4938575;29;20435;-73
2022/08/15 05:52:11;;;;;;;3.43;3.13;;;28.80;51.90;;;;;;4954200;29;20474;-73
2022/08/15 05:54:56;;;;;;;4.60;3.70;;;28.80;52.00;;;;;;4955337;29;20465;-73
2022/08/15 05:57:30;;;;;;;4.53;4.13;;;28.80;52.00;;;;;;4951198;29;20873;-73
2022/08/15 06:00:08;;;;;;;3.70;3.13;;;28.80;52.10;;;;;;4936080;29;20467;-73
2022/08/15 06:03:08;;;;;;;3.80;3.50;;;28.80;52.10;;;;;;4938095;29;20471;-73
2022/08/15 06:05:49;;;;;;;4.97;4.20;;;28.70;52.10;;;;;;4938751;28;20404;-73
2022/08/15 06:08:23;;;;;;;4.00;3.43;;;28.70;52.10;;;;;;4953182;29;20533;-73
2022/08/15 06:11:03;;;;;;;3.80;3.50;;;28.70;52.10;;;;;;4939912;29;20427;-74
2022/08/15 06:13:37;;;;;;;3.73;3.40;;;28.80;52.20;;;;;;4933435;29;21247;-74
2022/08/15 06:16:18;;;;;;;4.10;3.43;;;28.70;52.20;;;;;;4938667;29;20455;-74
2022/08/15 06:18:46;;;;;;;3.77;3.43;;;28.70;52.20;;;;;;4939155;29;20415;-74
2022/08/15 06:21:26;;;;;;;3.80;3.50;;;28.70;52.30;;;;;;4938759;29;20549;-74
2022/08/15 06:24:11;;;;;;;4.60;3.37;;;28.70;52.30;;;;;;4955032;29;20434;-73
2022/08/15 06:26:58;;;;;;;4.23;3.87;;;28.70;52.30;;;;;;4933393;29;20623;-76
2022/08/15 06:30:02;;;;;;;3.67;3.33;;;28.70;52.30;;;;;;4954081;29;20474;-75
2022/08/15 06:32:48;;;;;;;3.60;3.30;;;28.60;52.30;;;;;;4935197;29;20455;-75
2022/08/15 06:35:24;;;;;;;6.67;3.57;;;28.60;52.40;;;;;;4937147;29;20491;-75
2022/08/15 06:38:07;;;;;;;5.47;3.20;;;28.60;52.50;;;;;;4953126;29;20441;-75
2022/08/15 06:40:38;;;;;;;3.93;3.57;;;28.60;52.50;;;;;;4936876;29;20504;-74
2022/08/15 06:43:07;;;;;;;4.03;3.47;;;28.60;52.60;;;;;;4938215;29;20841;-72
2022/08/15 06:46:05;;;;;;;3.77;3.37;;;28.60;52.70;;;;;;4953736;29;20183;-74
2022/08/15 06:48:36;;;;;;;3.97;3.50;;;28.60;52.60;;;;;;4945740;29;20447;-75
2022/08/15 06:51:09;;;;;;;4.30;3.33;;;28.50;52.60;;;;;;4919391;29;20487;-75
2022/08/15 06:53:54;;;;;;;3.87;3.13;;;28.50;52.60;;;;;;4946209;29;20470;-75
2022/08/15 06:56:24;;;;;;;3.93;3.30;;;28.50;52.70;;;;;;4929425;29;20455;-74
2022/08/15 06:59:29;;;;;;;4.00;3.33;;;28.50;52.70;;;;;;4934990;29;20827;-75
2022/08/15 07:02:20;;;;;;;4.70;3.33;;;28.50;52.70;;;;;;4951347;29;21134;-74
2022/08/15 07:05:05;;;;;;;3.77;3.47;;;28.50;52.80;;;;;;4949318;28;20451;-74
2022/08/15 07:08:00;;;;;;;4.40;4.00;;;28.50;53.40;;;;;;4953527;29;20446;-74
2022/08/15 07:10:44;;;;;;;6.30;3.80;;;28.50;52.80;;;;;;4932426;23;20542;-67
2022/08/15 07:13:20;;;;;;;5.47;3.23;;;28.50;52.90;;;;;;4939448;29;20447;-67
2022/08/15 07:16:13;;;;;;;3.73;3.43;;;28.40;52.90;;;;;;4918746;29;20934;-67
2022/08/15 07:18:45;;;;;;;4.57;3.30;;;28.40;53.00;;;;;;4933618;29;20444;-68
2022/08/15 07:21:25;;;;;;;4.50;4.13;;;28.40;53.00;;;;;;4918365;29;21034;-67
2022/08/15 07:24:02;;;;;;;4.20;3.80;;;28.40;53.00;;;;;;4897490;29;20487;-69
2022/08/15 07:26:59;;;;;;;3.70;3.40;;;28.40;53.10;;;;;;4934158;29;20427;-66
2022/08/15 07:29:36;;;;;;;4.33;4.00;;;28.40;53.10;;;;;;4922369;29;20824;-67
2022/08/15 07:32:07;;;;;;;3.37;3.10;;;28.40;53.10;;;;;;4949953;29;20527;-67
2022/08/15 07:34:52;;;;;;;4.67;3.77;;;28.40;53.30;;;;;;4949983;29;20411;-67
2022/08/15 07:37:24;;;;;;;4.40;4.00;;;28.40;53.40;;;;;;4927637;29;20436;-67
2022/08/15 07:40:06;;;;;;;5.17;3.53;;;28.40;53.50;;;;;;4932394;29;20463;-67
2022/08/15 07:42:41;;;;;;;3.90;3.60;;;28.30;53.50;;;;;;4948021;29;20566;-67
2022/08/15 07:45:17;;;;;;;4.00;3.40;;;28.30;53.80;;;;;;4918226;29;20444;-67
2022/08/15 07:48:00;;;;;;;4.00;3.70;;;28.30;53.70;;;;;;4949811;29;20412;-67
2022/08/15 07:50:29;;;;;;;10.73;4.10;;;28.30;53.70;;;;;;4933851;29;20400;-68
2022/08/15 07:53:16;;;;;;;5.03;3.80;;;28.30;54.00;;;;;;4949044;29;20451;-67
2022/08/15 07:56:16;;;;;;;4.10;3.70;;;28.30;54.00;;;;;;4918196;29;20463;-67
2022/08/15 07:58:46;;;;;;;4.20;3.23;;;28.30;54.00;;;;;;4890631;29;20464;-66
2022/08/15 08:01:15;;;;;;;3.67;3.37;;;28.30;54.00;;;;;;4899175;29;20469;-67
2022/08/15 08:03:57;;;;;;;5.60;4.37;;;28.30;54.00;;;;;;4926548;29;20540;-68
2022/08/15 08:06:28;;;;;;;4.93;3.77;;;28.30;54.20;;;;;;4936157;29;20952;-67
2022/08/15 08:09:25;;;;;;;3.67;3.37;;;28.30;54.10;;;;;;4932504;29;20439;-66
2022/08/15 08:12:12;;;;;;;6.10;3.70;;;28.30;54.10;;;;;;4933083;29;20456;-67
2022/08/15 08:14:54;;;;;;;4.70;4.30;;;28.30;54.10;;;;;;4948580;28;21003;-67
2022/08/15 08:17:47;;;;;;;4.20;3.90;;;28.20;54.00;;;;;;4931446;29;20783;-67
2022/08/15 08:20:37;;;;;;;4.27;3.87;;;28.20;54.20;;;;;;4946020;29;20419;-67
2022/08/15 08:23:27;;;;;;;5.13;3.73;;;28.20;54.20;;;;;;4947136;28;20467;-67
2022/08/15 08:26:10;;;;;;;5.30;3.97;;;28.20;54.20;;;;;;4897781;29;20437;-66
2022/08/15 08:28:56;;;;;;;5.30;3.40;;;28.20;54.20;;;;;;4914455;29;20413;-67
2022/08/15 08:31:30;;;;;;;6.00;3.90;;;28.20;54.30;;;;;;4935777;29;20450;-67
2022/08/15 08:34:21;;;;;;;4.20;3.87;;;28.20;54.20;;;;;;4937769;29;20475;-65
2022/08/15 08:37:16;;;;;;;4.47;4.10;;;28.30;54.20;;;;;;4942241;29;20448;-69
2022/08/15 08:41:24;;;;;;;4.47;4.17;;;28.20;54.10;;;;;;4935607;29;20847;-66
2022/08/15 08:43:01;;;;;;;4.23;3.83;;;28.20;54.10;;;;;;4936283;29;20479;-67
2022/08/15 08:45:44;;;;;;;5.97;3.97;;;28.30;54.20;;;;;;4939200;29;20514;-68
2022/08/15 08:48:25;;;;;;;5.80;4.13;;;28.20;54.60;;;;;;4940666;29;20396;-66
2022/08/15 08:51:04;;;;;;;5.70;4.27;;;28.20;54.60;;;;;;4939527;29;20795;-67
2022/08/15 08:53:36;;;;;;;4.53;4.13;;;28.20;54.70;;;;;;4938185;29;21026;-67
2022/08/15 08:56:13;;;;;;;4.87;4.20;;;28.20;54.70;;;;;;4940673;29;20534;-66
2022/08/15 08:58:50;;;;;;;4.93;4.10;;;28.20;54.60;;;;;;4939484;29;20925;-66
2022/08/15 09:01:21;;;;;;;4.20;3.80;;;28.20;54.60;;;;;;4945570;29;20460;-67
2022/08/15 09:03:53;;;;;;;4.60;4.27;;;28.20;54.90;;;;;;4921449;29;20471;-66
2022/08/15 09:06:26;;;;;;;4.47;4.07;;;28.20;54.80;;;;;;4935994;29;20408;-67
2022/08/15 09:09:05;;;;;;;4.90;4.50;;;28.20;54.80;;;;;;4921376;29;20440;-67
2022/08/15 09:11:42;;;;;;;6.33;4.33;;;28.20;54.80;;;;;;4925105;29;20462;-67
2022/08/15 09:14:34;;;;;;;4.43;4.03;;;28.20;54.90;;;;;;4940213;29;20411;-67
2022/08/15 09:17:11;;;;;;;4.00;3.70;;;28.30;54.80;;;;;;4933956;29;20436;-67
2022/08/15 09:19:56;;;;;;;4.30;3.90;;;28.20;54.80;;;;;;4939006;29;20582;-67
2022/08/15 09:22:32;;;;;;;4.73;4.33;;;28.30;54.90;;;;;;4954570;29;20484;-68
2022/08/15 09:24:59;;;;;;;4.73;3.90;;;28.30;54.80;;;;;;4954777;29;20526;-69
2022/08/15 09:27:32;;;;;;;6.80;3.87;;;28.30;54.60;;;;;;4954904;28;20407;-69
2022/08/15 09:30:06;;;;;;;4.93;4.53;;;28.30;54.70;;;;;;4955156;28;20412;-69
2022/08/15 09:33:00;;;;;;;4.60;4.00;;;28.30;55.00;;;;;;4939251;29;20495;-68
2022/08/15 09:35:34;;;;;;;5.50;4.07;;;28.30;55.00;;;;;;4939803;29;21290;-69
2022/08/15 09:38:21;;;;;;;4.63;3.93;;;28.30;55.00;;;;;;4939109;29;20412;-68
2022/08/15 09:41:09;;;;;;;5.10;4.10;;;28.30;55.10;;;;;;4938531;29;20455;-69
2022/08/15 09:44:00;;;;;;;5.30;3.90;;;28.30;55.00;;;;;;4935982;29;20444;-69
2022/08/15 09:46:52;;;;;;;4.53;4.13;;;28.30;55.10;;;;;;4951694;29;21004;-68
2022/08/15 09:49:56;;;;;;;5.77;4.40;;;28.30;55.50;;;;;;4934397;29;20955;-69
2022/08/15 09:52:31;;;;;;;4.60;4.20;;;28.30;55.50;;;;;;4936084;29;20459;-69
2022/08/15 09:55:14;;;;;;;4.33;3.90;;;28.30;55.40;;;;;;4935873;29;20787;-68
2022/08/15 09:57:50;;;;;;;4.83;4.37;;;28.30;55.40;;;;;;4951863;29;20427;-68
2022/08/15 10:00:22;;;;;;;4.67;4.27;;;28.30;55.40;;;;;;4936527;29;20426;-68
2022/08/15 10:02:53;;;;;;;6.00;3.90;;;28.20;55.30;;;;;;4935414;29;21052;-68
2022/08/15 10:05:40;;;;;;;5.10;4.10;;;28.20;55.20;;;;;;4935750;29;20428;-68
2022/08/15 10:08:50;;;;;;;5.30;4.23;;;28.30;55.50;;;;;;4934595;29;20861;-69
2022/08/15 10:11:23;;;;;;;4.70;4.00;;;28.30;55.90;;;;;;4951320;29;20495;-68
2022/08/15 10:14:22;;;;;;;6.40;4.20;;;28.30;55.90;;;;;;4919752;29;20432;-68
2022/08/15 10:16:53;;;;;;;4.57;4.17;;;28.30;55.80;;;;;;4905958;29;20863;-69
2022/08/15 10:19:49;;;;;;;5.03;4.53;;;28.20;55.80;;;;;;4951281;29;20872;-68
2022/08/15 10:22:22;;;;;;;5.47;4.50;;;28.30;56.00;;;;;;4907210;29;20554;-68
2022/08/15 10:25:20;;;;;;;5.20;4.27;;;28.30;55.90;;;;;;4936559;29;20407;-69
2022/08/15 10:28:13;;;;;;;4.83;4.33;;;28.30;55.90;;;;;;4936276;29;20692;-69
2022/08/15 10:31:13;;;;;;;4.37;3.97;;;28.30;55.60;;;;;;4949273;29;20483;-69
2022/08/15 10:33:52;;;;;;;4.73;4.33;;;28.30;55.80;;;;;;4955101;29;20526;-68
2022/08/15 10:36:26;;;;;;;5.37;4.37;;;28.30;55.90;;;;;;4954361;28;20954;-68
2022/08/15 10:39:01;;;;;;;5.63;4.30;;;28.30;55.90;;;;;;4937571;28;20732;-69
2022/08/15 10:41:33;;;;;;;6.83;4.40;;;28.30;55.90;;;;;;4950958;29;20483;-68
2022/08/15 10:44:26;;;;;;;5.37;4.33;;;28.30;56.40;;;;;;4936169;29;20400;-69
2022/08/15 10:47:32;;;;;;;5.07;4.57;;;28.30;56.70;;;;;;4950719;29;20432;-69
2022/08/15 10:50:15;;;;;;;5.30;4.67;;;28.30;56.50;;;;;;4935839;29;20515;-70
2022/08/15 10:52:41;;;;;;;4.97;4.47;;;28.30;56.80;;;;;;4934666;29;20487;-69
2022/08/15 10:55:25;;;;;;;4.90;4.50;;;28.30;56.80;;;;;;4934685;29;20408;-69
2022/08/15 10:58:05;;;;;;;5.10;4.63;;;28.30;56.70;;;;;;4918362;29;20215;-68
2022/08/15 11:00:55;;;;;;;6.00;4.80;;;28.30;56.70;;;;;;4935663;29;20472;-69
2022/08/15 11:03:34;;;;;;;5.67;5.10;;;28.30;56.50;;;;;;4935673;29;20444;-68
2022/08/15 11:06:07;;;;;;;5.77;5.17;;;28.30;57.00;;;;;;4935729;29;20420;-69
2022/08/15 11:08:46;;;;;;;5.60;5.07;;;28.30;57.00;;;;;;4934800;29;20436;-69
2022/08/15 11:11:17;;;;;;;5.90;5.40;;;28.20;56.70;;;;;;4935374;29;20446;-70
2022/08/15 11:13:58;;;;;;;6.47;5.33;;;28.20;56.60;;;;;;4919054;29;20933;-68
2022/08/15 11:16:35;;;;;;;7.97;5.37;;;28.20;57.00;;;;;;4916366;29;20545;-68
2022/08/15 11:19:20;;;;;;;6.10;5.50;;;28.20;57.30;;;;;;4916320;29;20444;-69
2022/08/15 11:21:58;;;;;;;5.43;5.03;;;28.20;57.30;;;;;;4930731;29;20539;-68
2022/08/15 11:24:34;;;;;;;7.07;5.10;;;28.20;57.10;;;;;;4931079;29;20503;-69
2022/08/15 11:27:14;;;;;;;5.40;5.00;;;28.20;57.00;;;;;;4931170;29;20454;-69
2022/08/15 11:29:44;;;;;;;5.00;4.60;;;28.20;56.90;;;;;;4915882;29;20456;-69
2022/08/15 11:32:33;;;;;;;5.83;5.00;;;28.20;56.80;;;;;;4926957;29;20850;-68
2022/08/15 11:35:23;;;;;;;5.57;5.00;;;28.20;57.00;;;;;;4950178;29;20918;-69
2022/08/15 11:37:54;;;;;;;8.90;4.57;;;28.20;57.10;;;;;;4933546;29;20459;-69
2022/08/15 11:40:33;;;;;;;9.53;5.20;;;28.20;57.00;;;;;;4934579;29;20479;-68
2022/08/15 11:43:05;;;;;;;5.53;5.03;;;28.20;56.90;;;;;;4934977;29;20467;-69
2022/08/15 11:45:36;;;;;;;8.73;5.90;;;28.20;57.00;;;;;;4933810;29;20405;-69
2022/08/15 11:48:13;;;;;;;6.33;5.20;;;28.20;57.10;;;;;;4933704;29;20467;-68
2022/08/15 11:50:54;;;;;;;5.80;5.00;;;28.20;57.30;;;;;;4934527;29;20887;-69
2022/08/15 11:53:28;;;;;;;6.10;5.50;;;28.20;57.30;;;;;;4949024;28;20539;-69
2022/08/15 11:55:54;;;;;;;6.47;5.87;;;28.30;57.50;;;;;;4934683;29;20408;-69
2022/08/15 11:58:29;;;;;;;6.97;5.37;;;28.20;57.20;;;;;;4949711;29;20930;-68
2022/08/15 12:00:57;;;;;;;5.73;5.23;;;28.20;57.30;;;;;;4932984;29;20427;-69
2022/08/15 12:03:25;;;;;;;5.97;4.97;;;28.20;57.20;;;;;;4914149;29;20476;-68
2022/08/15 12:05:58;;;;;;;5.37;4.87;;;28.20;57.20;;;;;;4929898;29;20903;-69
2022/08/15 12:08:32;;;;;;;5.17;4.73;;;28.20;57.10;;;;;;4898455;29;20471;-67
2022/08/15 12:11:16;;;;;;;6.10;5.60;;;28.20;57.10;;;;;;4940554;28;20440;-67
2022/08/15 12:14:04;;;;;;;6.00;5.47;;;28.20;57.30;;;;;;4934407;29;20511;-67
2022/08/15 12:16:55;;;;;;;5.57;5.00;;;28.20;57.40;;;;;;4933388;29;20444;-66
2022/08/15 12:19:37;;;;;;;5.50;5.00;;;28.20;57.20;;;;;;4899315;29;20496;-66
2022/08/15 12:22:17;;;;;;;5.40;5.00;;;28.20;57.30;;;;;;4913915;29;20913;-66
2022/08/15 12:24:48;;;;;;;8.00;4.97;;;28.20;57.50;;;;;;4915434;29;20416;-68
2022/08/15 12:27:17;;;;;;;5.60;5.10;;;28.30;57.40;;;;;;4929594;29;20455;-67
2022/08/15 12:29:44;;;;;;;5.70;5.20;;;28.20;57.10;;;;;;4915430;29;20405;-67
2022/08/15 12:32:12;;;;;;;5.80;5.30;;;28.20;57.30;;;;;;4930108;29;20449;-67
2022/08/15 12:34:44;;;;;;;5.23;4.83;;;28.20;57.40;;;;;;4930862;29;20883;-67
2022/08/15 12:37:16;;;;;;;8.93;5.50;;;28.20;57.70;;;;;;4932371;29;20420;-67
2022/08/15 12:39:44;;;;;;;6.03;5.43;;;28.20;57.70;;;;;;4949233;29;20928;-67
2022/08/15 12:42:19;;;;;;;5.30;4.90;;;28.20;57.60;;;;;;4948893;29;20486;-67
2022/08/15 12:44:48;;;;;;;7.80;5.40;;;28.20;57.50;;;;;;4932967;29;20432;-67
2022/08/15 12:47:30;;;;;;;5.97;5.17;;;28.20;57.30;;;;;;4947242;29;20463;-67
2022/08/15 12:49:59;;;;;;;5.43;5.03;;;28.20;57.60;;;;;;4933755;29;20876;-67
2022/08/15 12:52:25;;;;;;;5.63;5.10;;;28.20;57.60;;;;;;4933601;29;20850;-67
2022/08/15 12:54:53;;;;;;;5.73;4.70;;;28.20;57.50;;;;;;4933017;29;20791;-67
2022/08/15 12:57:28;;;;;;;6.40;5.53;;;28.20;57.50;;;;;;4934176;29;20423;-67
2022/08/15 12:59:56;;;;;;;6.97;5.07;;;28.20;57.50;;;;;;4933809;29;21024;-67
2022/08/15 13:02:24;;;;;;;5.37;4.97;;;28.20;57.70;;;;;;4932693;29;20535;-67
2022/08/15 13:04:56;;;;;;;9.87;5.40;;;28.20;57.80;;;;;;4934379;29;20495;-67
2022/08/15 13:07:26;;;;;;;5.50;5.10;;;28.30;57.70;;;;;;4932538;29;21072;-67
2022/08/15 13:09:56;;;;;;;6.60;5.37;;;28.20;57.60;;;;;;4932405;29;20436;-66
2022/08/15 13:12:25;;;;;;;5.60;5.07;;;28.20;57.60;;;;;;4933739;29;20444;-67
2022/08/15 13:14:53;;;;;;;6.43;5.83;;;28.30;57.50;;;;;;4932609;29;20443;-68
2022/08/15 13:17:20;;;;;;;7.00;5.20;;;28.20;57.60;;;;;;4937656;29;20482;-67
2022/08/15 13:25:25;;;;;;;6.50;5.90;;;28.20;57.70;;;;;;4936992;29;20460;-67
2022/08/15 13:27:53;;;;;;;6.00;5.43;;;28.20;57.60;;;;;;4937436;29;20427;-67
2022/08/15 13:30:24;;;;;;;6.20;5.60;;;28.20;57.70;;;;;;4936387;29;20507;-67
2022/08/15 13:32:54;;;;;;;6.63;5.77;;;28.20;57.70;;;;;;4951453;29;20440;-67
2022/08/15 13:35:26;;;;;;;6.77;6.00;;;28.20;57.70;;;;;;4937287;29;20423;-67
2022/08/15 13:37:52;;;;;;;6.00;5.47;;;28.20;57.50;;;;;;4936331;29;20444;-67
2022/08/15 13:40:23;;;;;;;5.37;4.97;;;28.30;57.50;;;;;;4937302;29;20407;-67